createdAt,value
2022-10-11T00:02:01.725Z,101503.56
2022-10-11T00:04:28.294Z,101514.59
2022-10-11T00:06:54.900Z,101516.38
2022-10-11T00:09:21.441Z,101523.06
2022-10-11T00:11:47.948Z,101509.06
2022-10-11T00:14:14.772Z,101518.13
2022-10-11T00:16:44.277Z,101524.19
2022-10-11T00:19:11.760Z,101523.66
2022-10-11T00:21:38.480Z,101530.94
2022-10-11T00:24:05.860Z,101525.06
2022-10-11T00:26:32.468Z,101525.91
2022-10-11T00:28:59.087Z,101523.41
2022-10-11T00:31:25.712Z,101525.66
2022-10-11T00:33:53.754Z,101523.03
2022-10-11T00:36:21.337Z,101524.97
2022-10-11T00:38:48.403Z,101539.25
2022-10-11T00:41:16.054Z,101541.38
2022-10-11T00:43:42.736Z,101536.00
2022-10-11T00:46:18.579Z,101536.13
2022-10-11T00:48:53.618Z,101531.63
2022-10-11T00:51:36.431Z,101546.81
2022-10-11T00:54:04.462Z,101529.47
2022-10-11T00:56:34.137Z,101536.63
2022-10-11T00:59:04.363Z,101538.00
2022-10-11T01:01:31.556Z,101541.13
2022-10-11T01:03:58.582Z,101548.97
2022-10-11T01:06:25.139Z,101553.94
2022-10-11T01:08:52.832Z,101554.06
2022-10-11T01:11:22.925Z,101559.53
2022-10-11T01:14:16.770Z,101561.94
2022-10-11T01:17:10.346Z,101561.09
2022-10-11T01:20:10.250Z,101564.38
2022-10-11T01:22:59.586Z,101559.69
2022-10-11T01:25:29.134Z,101555.19
2022-10-11T01:27:56.024Z,101562.56
2022-10-11T01:30:28.296Z,101563.28
2022-10-11T01:33:02.325Z,101566.41
2022-10-11T01:35:40.325Z,101567.53
2022-10-11T01:38:24.160Z,101569.75
2022-10-11T01:40:54.986Z,101573.59
2022-10-11T01:43:23.801Z,101564.44
2022-10-11T01:45:52.479Z,101573.81
2022-10-11T01:48:19.436Z,101571.75
2022-10-11T01:50:48.818Z,101571.41
2022-10-11T01:53:44.234Z,101574.81
2022-10-11T01:57:01.893Z,101566.53
2022-10-11T01:59:50.255Z,101555.53
2022-10-11T02:02:29.308Z,101567.47
2022-10-11T02:05:09.115Z,101565.91
2022-10-11T02:07:42.733Z,101566.25
2022-10-11T02:10:27.395Z,101569.25
2022-10-11T02:13:02.876Z,101571.66
2022-10-11T02:15:31.343Z,101564.59
2022-10-11T02:18:02.323Z,101570.28
2022-10-11T02:20:32.219Z,101573.56
2022-10-11T02:23:17.079Z,101577.47
2022-10-11T02:25:45.548Z,101579.78
2022-10-11T02:28:18.413Z,101573.97
2022-10-11T02:30:47.608Z,101575.84
2022-10-11T02:33:17.990Z,101570.50
2022-10-11T02:35:49.408Z,101583.78
2022-10-11T02:38:26.378Z,101576.00
2022-10-11T02:41:10.753Z,101578.19
2022-10-11T02:43:42.262Z,101581.53
2022-10-11T02:46:10.222Z,101579.16
2022-10-11T02:48:37.523Z,101590.16
2022-10-11T02:51:04.716Z,101587.75
2022-10-11T02:53:31.770Z,101583.09
2022-10-11T02:55:58.249Z,101586.06
2022-10-11T02:58:25.355Z,101588.44
2022-10-11T03:00:51.957Z,101589.81
2022-10-11T03:03:18.565Z,101594.28
2022-10-11T03:05:45.224Z,101597.41
2022-10-11T03:08:13.445Z,101602.19
2022-10-11T03:10:40.605Z,101606.00
2022-10-11T03:13:07.487Z,101604.44
2022-10-11T03:15:34.080Z,101600.78
2022-10-11T03:18:00.717Z,101601.19
2022-10-11T03:20:27.375Z,101602.88
2022-10-11T03:22:53.852Z,101610.81
2022-10-11T03:25:20.445Z,101609.78
2022-10-11T03:27:47.033Z,101606.66
2022-10-11T03:30:17.849Z,101612.38
2022-10-11T03:32:44.912Z,101621.13
2022-10-11T03:35:11.458Z,101619.72
2022-10-11T03:37:38.064Z,101625.56
2022-10-11T03:40:06.219Z,101635.22
2022-10-11T03:42:32.789Z,101639.00
2022-10-11T03:45:01.599Z,101634.19
2022-10-11T03:47:28.174Z,101636.78
2022-10-11T03:49:54.692Z,101631.41
2022-10-11T03:52:21.364Z,101633.63
2022-10-11T03:54:48.089Z,101641.09
2022-10-11T03:57:14.877Z,101641.69
2022-10-11T03:59:41.384Z,101651.66
2022-10-11T04:02:08.019Z,101648.88
2022-10-11T04:04:34.746Z,101648.56
2022-10-11T04:07:01.408Z,101648.94
2022-10-11T04:09:28.075Z,101645.69
2022-10-11T04:11:54.631Z,101653.41
2022-10-11T04:14:21.152Z,101648.59
2022-10-11T04:16:47.713Z,101654.44
2022-10-11T04:19:14.365Z,101655.63
2022-10-11T04:21:40.938Z,101666.97
2022-10-11T04:24:07.707Z,101658.72
2022-10-11T04:26:34.295Z,101657.19
2022-10-11T04:29:00.858Z,101662.38
2022-10-11T04:31:27.471Z,101661.13
2022-10-11T04:33:54.192Z,101662.69
2022-10-11T04:36:20.854Z,101664.06
2022-10-11T04:38:47.400Z,101665.25
2022-10-11T04:41:15.074Z,101666.78
2022-10-11T04:43:42.125Z,101667.28
2022-10-11T04:46:10.299Z,101666.78
2022-10-11T04:48:37.150Z,101671.59
2022-10-11T04:51:03.916Z,101666.91
2022-10-11T04:53:30.448Z,101670.72
2022-10-11T04:56:01.491Z,101681.22
2022-10-11T04:58:29.659Z,101677.44
2022-10-11T05:00:56.825Z,101683.56
2022-10-11T05:03:24.282Z,101676.50
2022-10-11T05:05:51.297Z,101689.28
2022-10-11T05:08:17.852Z,101689.38
2022-10-11T05:10:55.568Z,101680.09
2022-10-11T05:13:22.412Z,101691.09
2022-10-11T05:15:50.064Z,101694.53
2022-10-11T05:18:16.730Z,101695.56
2022-10-11T05:20:43.271Z,101699.25
2022-10-11T05:23:09.879Z,101688.69
2022-10-11T05:25:36.725Z,101695.44
2022-10-11T05:28:03.590Z,101698.59
2022-10-11T05:30:30.278Z,101697.91
2022-10-11T05:32:56.803Z,101698.31
2022-10-11T05:35:23.317Z,101693.84
2022-10-11T05:37:49.882Z,101693.84
2022-10-11T05:40:16.688Z,101699.69
2022-10-11T05:42:43.305Z,101698.69
2022-10-11T05:45:09.993Z,101698.69
2022-10-11T05:47:36.512Z,101702.19
2022-10-11T05:50:03.130Z,101702.66
2022-10-11T05:52:30.749Z,101713.59
2022-10-11T05:54:57.331Z,101713.22
2022-10-11T05:57:23.932Z,101716.66
2022-10-11T05:59:50.406Z,101724.28
2022-10-11T06:02:16.877Z,101719.88
2022-10-11T06:04:43.527Z,101729.38
2022-10-11T06:07:10.148Z,101731.59
2022-10-11T06:09:36.732Z,101735.94
2022-10-11T06:12:03.567Z,101735.28
2022-10-11T06:14:30.157Z,101733.44
2022-10-11T06:16:56.743Z,101740.03
2022-10-11T06:19:23.690Z,101744.66
2022-10-11T06:21:50.262Z,101742.31
2022-10-11T06:24:16.846Z,101750.94
2022-10-11T06:26:43.349Z,101751.19
2022-10-11T06:29:10.038Z,101750.78
2022-10-11T06:31:36.703Z,101757.72
2022-10-11T06:34:03.238Z,101756.72
2022-10-11T06:36:29.933Z,101764.78
2022-10-11T06:38:56.765Z,101756.31
2022-10-11T06:41:26.255Z,101772.16
2022-10-11T06:43:53.232Z,101761.66
2022-10-11T06:46:21.758Z,101773.53
2022-10-11T06:48:48.977Z,101774.06
2022-10-11T06:51:17.723Z,101776.81
2022-10-11T06:53:48.111Z,101773.25
2022-10-11T06:56:14.990Z,101780.31
2022-10-11T06:58:41.656Z,101789.94
2022-10-11T07:01:12.231Z,101786.69
2022-10-11T07:03:39.278Z,101791.41
2022-10-11T07:06:13.934Z,101796.75
2022-10-11T07:08:41.100Z,101796.63
2022-10-11T07:11:10.707Z,101791.66
2022-10-11T07:13:38.691Z,101804.69
2022-10-11T07:16:08.435Z,101804.97
2022-10-11T07:18:35.686Z,101808.16
2022-10-11T07:21:04.735Z,101812.84
2022-10-11T07:23:31.625Z,101809.66
2022-10-11T07:25:58.084Z,101809.69
2022-10-11T07:28:25.199Z,101821.06
2022-10-11T07:30:51.881Z,101826.44
2022-10-11T07:33:18.664Z,101823.91
2022-10-11T07:35:48.369Z,101821.72
2022-10-11T07:38:15.516Z,101819.84
2022-10-11T07:40:43.866Z,101826.41
2022-10-11T07:43:11.373Z,101823.69
2022-10-11T07:45:39.276Z,101826.09
2022-10-11T07:48:06.050Z,101828.88
2022-10-11T07:50:33.722Z,101820.16
2022-10-11T07:53:00.928Z,101827.38
2022-10-11T07:55:27.694Z,101824.28
2022-10-11T07:57:54.997Z,101830.81
2022-10-11T08:00:21.989Z,101825.50
2022-10-11T08:02:48.508Z,101832.56
2022-10-11T08:05:15.540Z,101833.25
2022-10-11T08:07:42.174Z,101836.34
2022-10-11T08:10:09.506Z,101824.13
2022-10-11T08:12:36.027Z,101833.41
2022-10-11T08:15:02.608Z,101831.69
2022-10-11T08:17:29.537Z,101832.53
2022-10-11T08:19:58.052Z,101836.66
2022-10-11T08:22:24.599Z,101832.69
2022-10-11T08:24:51.162Z,101833.34
2022-10-11T08:27:17.948Z,101836.78
2022-10-11T08:29:44.706Z,101827.59
2022-10-11T08:32:12.156Z,101835.53
2022-10-11T08:34:38.795Z,101837.53
2022-10-11T08:37:05.433Z,101833.59
2022-10-11T08:39:32.171Z,101837.56
2022-10-11T08:42:03.351Z,101837.38
2022-10-11T08:44:51.865Z,101835.47
2022-10-11T08:47:25.663Z,101834.22
2022-10-11T08:49:52.594Z,101837.84
2022-10-11T08:52:23.732Z,101841.91
2022-10-11T08:54:59.352Z,101847.94
2022-10-11T08:57:29.173Z,101846.38
2022-10-11T08:59:58.882Z,101839.25
2022-10-11T09:02:55.549Z,101847.56
2022-10-11T09:05:24.993Z,101844.91
2022-10-11T09:08:10.645Z,101839.19
2022-10-11T09:10:58.575Z,101850.44
2022-10-11T09:13:46.635Z,101856.34
2022-10-11T09:16:33.911Z,101843.44
2022-10-11T09:19:18.996Z,101845.78
2022-10-11T09:21:57.655Z,101851.31
2022-10-11T09:24:47.224Z,101851.84
2022-10-11T09:27:43.630Z,101851.75
2022-10-11T09:30:17.927Z,101842.41
2022-10-11T09:32:51.140Z,101847.00
2022-10-11T09:35:20.969Z,101844.72
2022-10-11T09:38:14.584Z,101846.09
2022-10-11T09:40:53.321Z,101843.38
2022-10-11T09:43:20.110Z,101841.09
2022-10-11T09:45:49.527Z,101842.22
2022-10-11T09:48:27.189Z,101843.31
2022-10-11T09:51:02.514Z,101849.91
2022-10-11T09:54:14.096Z,101846.66
2022-10-11T09:56:43.603Z,101845.63
2022-10-11T09:59:28.438Z,101852.56
2022-10-11T10:02:13.457Z,101853.34
2022-10-11T10:05:01.925Z,101850.94
2022-10-11T10:07:30.604Z,101844.84
2022-10-11T10:09:57.867Z,101852.66
2022-10-11T10:12:28.476Z,101853.94
2022-10-11T10:15:06.248Z,101846.22
2022-10-11T10:17:33.985Z,101863.44
2022-10-11T10:20:00.675Z,101854.00
2022-10-11T10:22:34.099Z,101849.50
2022-10-11T10:25:05.866Z,101848.63
2022-10-11T10:27:32.478Z,101846.72
2022-10-11T10:30:21.412Z,101851.31
2022-10-11T10:33:05.346Z,101853.50
2022-10-11T10:35:58.288Z,101850.94
2022-10-11T10:38:51.202Z,101853.56
2022-10-11T10:41:19.372Z,101855.09
2022-10-11T10:43:59.050Z,101853.41
2022-10-11T10:46:50.450Z,101857.50
2022-10-11T10:49:53.518Z,101846.38
2022-10-11T10:53:01.936Z,101850.03
2022-10-11T10:55:45.979Z,101856.34
2022-10-11T10:58:33.098Z,101850.16
2022-10-11T11:01:09.849Z,101839.63
2022-10-11T11:03:46.291Z,101841.47
2022-10-11T11:06:21.979Z,101836.31
2022-10-11T11:09:06.861Z,101841.94
2022-10-11T11:11:46.332Z,101846.03
2022-10-11T11:14:21.727Z,101839.16
2022-10-11T11:17:04.005Z,101844.09
2022-10-11T11:19:53.254Z,101839.72
2022-10-11T11:22:44.473Z,101845.25
2022-10-11T11:25:44.917Z,101847.31
2022-10-11T11:28:46.751Z,101840.34
2022-10-11T11:31:36.636Z,101837.25
2022-10-11T11:34:23.445Z,101835.22
2022-10-11T11:37:00.157Z,101825.75
2022-10-11T11:39:33.005Z,101834.63
2022-10-11T11:42:11.697Z,101831.28
2022-10-11T11:44:42.871Z,101827.06
2022-10-11T11:47:19.950Z,101821.38
2022-10-11T11:49:53.486Z,101816.50
2022-10-11T11:52:29.729Z,101815.75
2022-10-11T11:55:19.705Z,101815.22
2022-10-11T11:58:03.304Z,101810.56
2022-10-11T12:00:51.490Z,101815.91
2022-10-11T12:03:27.762Z,101808.84
2022-10-11T12:06:26.196Z,101813.53
2022-10-11T12:09:01.954Z,101808.84
2022-10-11T12:11:35.386Z,101803.41
2022-10-11T12:14:16.941Z,101810.69
2022-10-11T12:17:11.778Z,101799.84
2022-10-11T12:19:41.869Z,101800.75
2022-10-11T12:22:40.256Z,101800.56
2022-10-11T12:25:09.797Z,101797.63
2022-10-11T12:27:38.218Z,101796.56
2022-10-11T12:30:26.144Z,101790.88
2022-10-11T12:33:05.963Z,101790.28
2022-10-11T12:35:33.260Z,101798.19
2022-10-11T12:38:18.014Z,101790.66
2022-10-11T12:40:47.177Z,101791.13
2022-10-11T12:43:19.831Z,101786.78
2022-10-11T12:45:48.006Z,101787.69
2022-10-11T12:48:55.814Z,101784.38
2022-10-11T12:51:49.943Z,101777.94
2022-10-11T12:54:27.503Z,101777.31
2022-10-11T12:57:17.385Z,101780.34
2022-10-11T12:59:45.496Z,101778.50
2022-10-11T13:02:42.499Z,101777.47
2022-10-11T13:05:21.783Z,101778.06
2022-10-11T13:07:49.204Z,101768.88
2022-10-11T13:10:24.213Z,101768.78
2022-10-11T13:12:53.205Z,101765.31
2022-10-11T13:15:22.259Z,101773.44
2022-10-11T13:17:50.278Z,101775.78
2022-10-11T13:20:17.247Z,101770.78
2022-10-11T13:22:47.538Z,101766.03
2022-10-11T13:25:22.421Z,101759.84
2022-10-11T13:27:51.174Z,101761.84
2022-10-11T13:30:26.108Z,101752.72
2022-10-11T13:32:53.152Z,101749.75
2022-10-11T13:35:35.244Z,101758.00
2022-10-11T13:38:03.149Z,101745.53
2022-10-11T13:40:30.797Z,101746.50
2022-10-11T13:42:59.723Z,101750.56
2022-10-11T13:45:30.639Z,101741.63
2022-10-11T13:47:57.448Z,101743.53
2022-10-11T13:50:36.863Z,101743.75
2022-10-11T13:53:21.891Z,101744.84
2022-10-11T13:55:53.618Z,101746.22
2022-10-11T13:58:32.321Z,101731.75
2022-10-11T14:01:02.872Z,101728.34
2022-10-11T14:03:55.542Z,101731.41
2022-10-11T14:06:22.745Z,101738.47
2022-10-11T14:08:55.522Z,101739.31
2022-10-11T14:11:34.626Z,101738.25
2022-10-11T14:14:38.714Z,101736.78
2022-10-11T14:17:20.702Z,101735.69
2022-10-11T14:20:07.273Z,101734.25
2022-10-11T14:22:36.818Z,101732.69
2022-10-11T14:25:04.248Z,101740.13
2022-10-11T14:27:30.894Z,101730.88
2022-10-11T14:30:24.150Z,101728.47
2022-10-11T14:32:45.417Z,101733.56
2022-10-11T14:35:23.412Z,101739.25
2022-10-11T14:37:50.187Z,101737.56
2022-10-11T14:40:21.361Z,101738.88
2022-10-11T14:42:48.739Z,101729.91
2022-10-11T14:45:16.101Z,101733.97
2022-10-11T14:47:43.242Z,101736.03
2022-10-11T14:50:31.704Z,101729.63
2022-10-11T14:52:58.594Z,101724.09
2022-10-11T14:55:25.365Z,101730.34
2022-10-11T14:57:52.509Z,101724.22
2022-10-11T15:00:26.443Z,101723.00
2022-10-11T15:02:53.935Z,101723.41
2022-10-11T15:05:21.925Z,101723.19
2022-10-11T15:07:49.376Z,101717.47
2022-10-11T15:10:28.073Z,101719.41
2022-10-11T15:12:55.935Z,101713.22
2022-10-11T15:15:24.782Z,101720.22
2022-10-11T15:17:56.260Z,101718.50
2022-10-11T15:20:33.188Z,101717.25
2022-10-11T15:23:00.407Z,101714.03
2022-10-11T15:25:29.058Z,101718.31
2022-10-11T15:27:56.988Z,101710.28
2022-10-11T15:30:26.508Z,101706.97
2022-10-11T15:32:53.418Z,101703.50
2022-10-11T15:35:22.679Z,101699.91
2022-10-11T15:37:53.155Z,101710.19
2022-10-11T15:40:25.821Z,101703.28
2022-10-11T15:42:54.664Z,101702.72
2022-10-11T15:45:22.536Z,101709.63
2022-10-11T15:47:50.031Z,101704.06
2022-10-11T15:50:39.060Z,101705.44
2022-10-11T15:53:22.862Z,101713.16
2022-10-11T15:55:52.011Z,101713.31
2022-10-11T15:58:20.197Z,101705.19
2022-10-11T16:00:48.702Z,101712.56
2022-10-11T16:03:17.265Z,101709.16
2022-10-11T16:05:44.237Z,101715.50
2022-10-11T16:08:11.642Z,101714.56
2022-10-11T16:10:38.994Z,101711.03
2022-10-11T16:13:06.156Z,101715.78
2022-10-11T16:15:33.438Z,101724.78
2022-10-11T16:18:00.092Z,101717.44
2022-10-11T16:20:26.804Z,101721.28
2022-10-11T16:22:54.484Z,101717.84
2022-10-11T16:25:22.110Z,101722.28
2022-10-11T16:27:49.423Z,101713.00
2022-10-11T16:30:18.001Z,101711.41
2022-10-11T16:32:45.152Z,101716.03
2022-10-11T16:35:13.892Z,101710.09
2022-10-11T16:37:40.952Z,101708.13
2022-10-11T16:40:09.383Z,101706.66
2022-10-11T16:42:38.385Z,101708.50
2022-10-11T16:45:06.044Z,101706.50
2022-10-11T16:47:32.651Z,101701.09
2022-10-11T16:49:59.293Z,101704.66
2022-10-11T16:52:25.896Z,101718.16
2022-10-11T16:54:52.465Z,101703.13
2022-10-11T16:57:19.838Z,101708.75
2022-10-11T16:59:46.849Z,101712.25
2022-10-11T17:02:19.249Z,101705.78
2022-10-11T17:04:46.123Z,101708.44
2022-10-11T17:07:13.475Z,101710.28
2022-10-11T17:09:44.003Z,101718.28
2022-10-11T17:12:13.536Z,101708.88
2022-10-11T17:14:41.863Z,101711.72
2022-10-11T17:17:09.972Z,101713.25
2022-10-11T17:19:45.239Z,101713.44
2022-10-11T17:22:15.704Z,101711.72
2022-10-11T17:24:42.404Z,101706.59
2022-10-11T17:27:09.574Z,101706.28
2022-10-11T17:29:36.543Z,101713.06
2022-10-11T17:32:04.154Z,101709.53
2022-10-11T17:34:30.763Z,101707.66
2022-10-11T17:36:57.229Z,101706.44
2022-10-11T17:39:25.629Z,101704.41
2022-10-11T17:41:52.410Z,101707.13
2022-10-11T17:44:19.933Z,101702.72
2022-10-11T17:46:46.939Z,101719.31
2022-10-11T17:49:14.001Z,101721.22
2022-10-11T17:51:41.617Z,101708.41
2022-10-11T17:54:12.569Z,101715.00
2022-10-11T17:56:41.370Z,101713.94
2022-10-11T17:59:11.535Z,101706.03
2022-10-11T18:01:38.307Z,101714.50
2022-10-11T18:04:06.010Z,101710.41
2022-10-11T18:06:37.435Z,101716.47
2022-10-11T18:09:04.433Z,101719.66
2022-10-11T18:11:31.641Z,101708.00
2022-10-11T18:13:58.212Z,101706.47
2022-10-11T18:16:27.017Z,101717.47
2022-10-11T18:18:55.013Z,101715.25
2022-10-11T18:21:21.541Z,101718.88
2022-10-11T18:23:48.152Z,101715.31
2022-10-11T18:26:17.649Z,101718.09
2022-10-11T18:28:44.934Z,101722.19
2022-10-11T18:31:15.230Z,101716.09
2022-10-11T18:33:43.012Z,101720.66
2022-10-11T18:36:12.095Z,101727.38
2022-10-11T18:38:42.932Z,101718.56
2022-10-11T18:41:11.232Z,101716.34
2022-10-11T18:43:37.881Z,101713.53
2022-10-11T18:46:05.818Z,101714.63
2022-10-11T18:48:33.235Z,101722.03
2022-10-11T18:51:09.777Z,101705.31
2022-10-11T18:53:37.564Z,101704.56
2022-10-11T18:56:07.173Z,101698.59
2022-10-11T18:58:35.807Z,101697.16
2022-10-11T19:01:15.798Z,101706.69
2022-10-11T19:03:43.425Z,101702.28
2022-10-11T19:06:16.997Z,101699.22
2022-10-11T19:08:55.296Z,101693.28
2022-10-11T19:11:23.719Z,101692.72
2022-10-11T19:13:56.291Z,101696.53
2022-10-11T19:16:23.563Z,101701.66
2022-10-11T19:18:51.440Z,101694.63
2022-10-11T19:21:19.212Z,101695.66
2022-10-11T19:23:47.032Z,101691.31
2022-10-11T19:26:18.176Z,101693.28
2022-10-11T19:28:46.037Z,101694.13
2022-10-11T19:31:16.668Z,101696.03
2022-10-11T19:33:44.981Z,101688.97
2022-10-11T19:36:16.851Z,101694.91
2022-10-11T19:38:46.091Z,101693.00
2022-10-11T19:41:13.715Z,101690.88
2022-10-11T19:43:40.353Z,101695.00
2022-10-11T19:46:10.163Z,101691.81
2022-10-11T19:48:38.037Z,101694.06
2022-10-11T19:51:16.647Z,101689.59
2022-10-11T19:53:43.559Z,101688.72
2022-10-11T19:56:12.502Z,101685.78
2022-10-11T19:58:39.637Z,101685.28
2022-10-11T20:01:09.918Z,101693.63
2022-10-11T20:03:37.183Z,101700.88
2022-10-11T20:06:06.947Z,101694.97
2022-10-11T20:08:34.839Z,101688.53
2022-10-11T20:11:04.572Z,101697.16
2022-10-11T20:13:34.883Z,101693.59
2022-10-11T20:16:05.172Z,101696.66
2022-10-11T20:18:32.283Z,101697.53
2022-10-11T20:21:03.286Z,101696.66
2022-10-11T20:23:31.013Z,101698.97
2022-10-11T20:26:04.061Z,101708.50
2022-10-11T20:28:32.977Z,101706.44
2022-10-11T20:31:00.728Z,101699.16
2022-10-11T20:33:29.356Z,101700.53
2022-10-11T20:36:10.026Z,101704.16
2022-10-11T20:38:39.719Z,101693.31
2022-10-11T20:41:11.144Z,101693.47
2022-10-11T20:43:38.059Z,101695.09
2022-10-11T20:46:07.442Z,101697.84
2022-10-11T20:48:35.603Z,101696.09
2022-10-11T20:51:02.483Z,101697.66
2022-10-11T20:53:29.760Z,101696.59
2022-10-11T20:55:56.809Z,101683.28
2022-10-11T20:58:23.963Z,101689.50
2022-10-11T21:00:50.641Z,101685.34
2022-10-11T21:03:17.769Z,101686.69
2022-10-11T21:05:44.423Z,101682.78
2022-10-11T21:08:11.867Z,101679.88
2022-10-11T21:10:39.041Z,101681.47
2022-10-11T21:13:05.949Z,101680.09
2022-10-11T21:15:33.113Z,101685.06
2022-10-11T21:18:00.295Z,101688.03
2022-10-11T21:20:27.141Z,101684.75
2022-10-11T21:22:53.739Z,101682.31
2022-10-11T21:25:20.622Z,101689.56
2022-10-11T21:27:47.277Z,101688.91
2022-10-11T21:30:13.793Z,101680.66
2022-10-11T21:32:40.387Z,101673.63
2022-10-11T21:35:06.879Z,101681.72
2022-10-11T21:37:33.710Z,101680.00
2022-10-11T21:40:00.339Z,101680.50
2022-10-11T21:42:29.571Z,101675.50
2022-10-11T21:44:56.286Z,101685.84
2022-10-11T21:47:22.824Z,101683.59
2022-10-11T21:49:49.392Z,101679.81
2022-10-11T21:52:16.003Z,101680.69
2022-10-11T21:54:42.486Z,101678.28
2022-10-11T21:57:09.055Z,101678.78
2022-10-11T21:59:35.552Z,101684.63
2022-10-11T22:02:02.383Z,101676.91
2022-10-11T22:04:28.922Z,101680.34
2022-10-11T22:06:55.714Z,101682.56
2022-10-11T22:09:22.477Z,101688.25
2022-10-11T22:11:49.148Z,101684.25
2022-10-11T22:14:15.665Z,101688.22
2022-10-11T22:16:42.205Z,101688.78
2022-10-11T22:19:08.702Z,101683.75
2022-10-11T22:21:35.413Z,101675.34
2022-10-11T22:24:02.036Z,101667.94
2022-10-11T22:26:30.852Z,101676.88
2022-10-11T22:28:59.341Z,101676.00
2022-10-11T22:31:25.965Z,101676.53
2022-10-11T22:33:58.627Z,101675.66
2022-10-11T22:36:26.528Z,101673.09
2022-10-11T22:38:54.066Z,101675.53
2022-10-11T22:41:20.693Z,101681.88
2022-10-11T22:43:47.264Z,101670.34
2022-10-11T22:46:13.821Z,101672.56
2022-10-11T22:48:40.344Z,101676.88
2022-10-11T22:51:07.078Z,101670.69
2022-10-11T22:53:33.937Z,101671.38
2022-10-11T22:56:00.548Z,101665.19
2022-10-11T22:58:27.194Z,101672.03
2022-10-11T23:00:53.779Z,101670.28
2022-10-11T23:03:20.416Z,101661.22
2022-10-11T23:05:57.339Z,101666.34
2022-10-11T23:08:24.533Z,101667.03
2022-10-11T23:10:51.523Z,101665.16
2022-10-11T23:13:18.357Z,101664.81
2022-10-11T23:15:44.918Z,101663.44
2022-10-11T23:18:11.886Z,101667.06
2022-10-11T23:20:39.283Z,101653.09
2022-10-11T23:23:06.467Z,101660.50
2022-10-11T23:25:33.046Z,101659.28
2022-10-11T23:28:01.044Z,101664.94
2022-10-11T23:30:28.938Z,101663.06
2022-10-11T23:32:55.546Z,101668.56
2022-10-11T23:35:22.429Z,101667.53
2022-10-11T23:37:49.009Z,101658.75
2022-10-11T23:40:15.882Z,101660.31
2022-10-11T23:42:42.384Z,101663.06
2022-10-11T23:45:09.269Z,101659.66
2022-10-11T23:47:36.010Z,101662.03
2022-10-11T23:50:02.781Z,101664.22
2022-10-11T23:52:29.320Z,101661.16
2022-10-11T23:54:56.111Z,101659.41
2022-10-11T23:57:22.649Z,101668.00
2022-10-11T23:59:49.141Z,101655.56
